sensor_id;sensor_type;location;lat;lon;timestamp;P1;durP1;ratioP1;P2;durP2;ratioP2
11608;SDS011;5860;52.018;8.536;2024-01-10T00:01:59;14.03;;;7.00;;
11608;SDS011;5860;52.018;8.536;2024-01-10T00:04:26;13.77;;;7.00;;
11608;SDS011;5860;52.018;8.536;2024-01-10T00:06:53;14.83;;;6.40;;
11608;SDS011;5860;52.018;8.536;2024-01-10T00:09:19;13.17;;;6.63;;
11608;SDS011;5860;52.018;8.536;2024-01-10T00:11:47;12.63;;;6.53;;
11608;SDS011;5860;52.018;8.536;2024-01-10T00:14:14;12.87;;;6.50;;
11608;SDS011;5860;52.018;8.536;2024-01-10T00:16:41;14.33;;;7.23;;
11608;SDS011;5860;52.018;8.536;2024-01-10T00:19:08;12.67;;;6.80;;
11608;SDS011;5860;52.018;8.536;2024-01-10T00:21:35;12.57;;;6.97;;
11608;SDS011;5860;52.018;8.536;2024-01-10T00:24:02;12.90;;;7.00;;
11608;SDS011;5860;52.018;8.536;2024-01-10T00:26:29;10.27;;;6.53;;
11608;SDS011;5860;52.018;8.536;2024-01-10T00:28:56;12.03;;;6.27;;
11608;SDS011;5860;52.018;8.536;2024-01-10T00:31:30;11.57;;;7.10;;
11608;SDS011;5860;52.018;8.536;2024-01-10T00:33:57;10.30;;;6.60;;
11608;SDS011;5860;52.018;8.536;2024-01-10T00:36:24;16.33;;;7.70;;
11608;SDS011;5860;52.018;8.536;2024-01-10T00:38:51;13.87;;;7.23;;
11608;SDS011;5860;52.018;8.536;2024-01-10T00:41:18;11.20;;;6.87;;
11608;SDS011;5860;52.018;8.536;2024-01-10T00:43:45;12.23;;;6.80;;
11608;SDS011;5860;52.018;8.536;2024-01-10T00:46:12;11.27;;;6.33;;
11608;SDS011;5860;52.018;8.536;2024-01-10T00:48:39;14.77;;;7.43;;
11608;SDS011;5860;52.018;8.536;2024-01-10T00:51:06;13.80;;;6.77;;
11608;SDS011;5860;52.018;8.536;2024-01-10T00:53:35;10.73;;;6.53;;
11608;SDS011;5860;52.018;8.536;2024-01-10T00:56:02;16.37;;;7.20;;
11608;SDS011;5860;52.018;8.536;2024-01-10T00:58:29;14.53;;;6.30;;
11608;SDS011;5860;52.018;8.536;2024-01-10T01:00:56;13.53;;;7.30;;
11608;SDS011;5860;52.018;8.536;2024-01-10T01:03:23;14.33;;;7.47;;
11608;SDS011;5860;52.018;8.536;2024-01-10T01:05:50;12.53;;;6.80;;
11608;SDS011;5860;52.018;8.536;2024-01-10T01:08:17;18.60;;;7.17;;
11608;SDS011;5860;52.018;8.536;2024-01-10T01:11:06;17.60;;;7.67;;
11608;SDS011;5860;52.018;8.536;2024-01-10T01:13:33;13.30;;;6.83;;
11608;SDS011;5860;52.018;8.536;2024-01-10T01:16:00;13.50;;;7.10;;
11608;SDS011;5860;52.018;8.536;2024-01-10T01:18:27;17.80;;;8.10;;
11608;SDS011;5860;52.018;8.536;2024-01-10T01:20:55;14.23;;;7.13;;
11608;SDS011;5860;52.018;8.536;2024-01-10T01:23:21;14.17;;;7.13;;
11608;SDS011;5860;52.018;8.536;2024-01-10T01:26:01;13.40;;;7.03;;
11608;SDS011;5860;52.018;8.536;2024-01-10T01:28:30;13.47;;;7.70;;
11608;SDS011;5860;52.018;8.536;2024-01-10T01:30:58;14.07;;;7.37;;
11608;SDS011;5860;52.018;8.536;2024-01-10T01:33:25;12.97;;;7.00;;
11608;SDS011;5860;52.018;8.536;2024-01-10T01:35:52;12.13;;;6.90;;
11608;SDS011;5860;52.018;8.536;2024-01-10T01:38:20;13.27;;;6.57;;
11608;SDS011;5860;52.018;8.536;2024-01-10T01:40:47;13.47;;;7.80;;
11608;SDS011;5860;52.018;8.536;2024-01-10T01:43:21;11.13;;;7.13;;
11608;SDS011;5860;52.018;8.536;2024-01-10T01:45:53;14.87;;;7.63;;
11608;SDS011;5860;52.018;8.536;2024-01-10T01:48:22;13.87;;;7.20;;
11608;SDS011;5860;52.018;8.536;2024-01-10T01:50:52;12.73;;;7.33;;
11608;SDS011;5860;52.018;8.536;2024-01-10T01:53:27;13.97;;;7.40;;
11608;SDS011;5860;52.018;8.536;2024-01-10T01:55:55;15.23;;;8.43;;
11608;SDS011;5860;52.018;8.536;2024-01-10T01:58:22;13.27;;;7.37;;
11608;SDS011;5860;52.018;8.536;2024-01-10T02:00:50;11.67;;;6.80;;
11608;SDS011;5860;52.018;8.536;2024-01-10T02:03:18;13.37;;;7.37;;
11608;SDS011;5860;52.018;8.536;2024-01-10T02:05:45;18.27;;;7.10;;
11608;SDS011;5860;52.018;8.536;2024-01-10T02:08:13;12.27;;;7.23;;
11608;SDS011;5860;52.018;8.536;2024-01-10T02:10:41;13.23;;;6.50;;
11608;SDS011;5860;52.018;8.536;2024-01-10T02:13:08;11.60;;;6.83;;
11608;SDS011;5860;52.018;8.536;2024-01-10T02:15:37;15.50;;;7.17;;
11608;SDS011;5860;52.018;8.536;2024-01-10T02:18:05;18.07;;;7.90;;
11608;SDS011;5860;52.018;8.536;2024-01-10T02:20:32;16.23;;;7.57;;
11608;SDS011;5860;52.018;8.536;2024-01-10T02:23:00;11.23;;;7.17;;
11608;SDS011;5860;52.018;8.536;2024-01-10T02:25:27;12.63;;;7.23;;
11608;SDS011;5860;52.018;8.536;2024-01-10T02:27:53;14.03;;;6.97;;
11608;SDS011;5860;52.018;8.536;2024-01-10T02:30:21;13.47;;;7.37;;
11608;SDS011;5860;52.018;8.536;2024-01-10T02:32:48;13.73;;;7.17;;
11608;SDS011;5860;52.018;8.536;2024-01-10T02:35:15;13.60;;;6.97;;
11608;SDS011;5860;52.018;8.536;2024-01-10T02:37:42;13.87;;;7.80;;
11608;SDS011;5860;52.018;8.536;2024-01-10T02:40:09;15.10;;;7.23;;
11608;SDS011;5860;52.018;8.536;2024-01-10T02:42:37;15.40;;;7.87;;
11608;SDS011;5860;52.018;8.536;2024-01-10T02:45:04;17.33;;;8.50;;
11608;SDS011;5860;52.018;8.536;2024-01-10T02:47:31;17.60;;;8.20;;
11608;SDS011;5860;52.018;8.536;2024-01-10T02:49:58;15.23;;;8.13;;
11608;SDS011;5860;52.018;8.536;2024-01-10T02:52:25;15.73;;;8.80;;
11608;SDS011;5860;52.018;8.536;2024-01-10T02:54:52;14.10;;;8.40;;
11608;SDS011;5860;52.018;8.536;2024-01-10T02:57:19;12.97;;;7.60;;
11608;SDS011;5860;52.018;8.536;2024-01-10T02:59:46;12.23;;;6.70;;
11608;SDS011;5860;52.018;8.536;2024-01-10T03:02:13;15.77;;;8.43;;
11608;SDS011;5860;52.018;8.536;2024-01-10T03:04:41;16.37;;;8.73;;
11608;SDS011;5860;52.018;8.536;2024-01-10T03:07:08;15.77;;;8.80;;
11608;SDS011;5860;52.018;8.536;2024-01-10T03:09:35;13.67;;;7.63;;
11608;SDS011;5860;52.018;8.536;2024-01-10T03:12:02;14.90;;;8.03;;
11608;SDS011;5860;52.018;8.536;2024-01-10T03:14:29;18.10;;;8.60;;
11608;SDS011;5860;52.018;8.536;2024-01-10T03:16:56;13.27;;;7.80;;
11608;SDS011;5860;52.018;8.536;2024-01-10T03:19:22;17.33;;;8.30;;
11608;SDS011;5860;52.018;8.536;2024-01-10T03:21:49;15.60;;;8.37;;
11608;SDS011;5860;52.018;8.536;2024-01-10T03:24:16;15.47;;;8.37;;
11608;SDS011;5860;52.018;8.536;2024-01-10T03:26:43;20.27;;;9.37;;
11608;SDS011;5860;52.018;8.536;2024-01-10T03:29:10;21.20;;;9.17;;
11608;SDS011;5860;52.018;8.536;2024-01-10T03:31:37;16.30;;;8.77;;
11608;SDS011;5860;52.018;8.536;2024-01-10T03:34:04;14.13;;;7.87;;
11608;SDS011;5860;52.018;8.536;2024-01-10T03:36:30;14.73;;;7.33;;
11608;SDS011;5860;52.018;8.536;2024-01-10T03:38:57;18.30;;;9.10;;
11608;SDS011;5860;52.018;8.536;2024-01-10T03:41:24;15.03;;;8.37;;
11608;SDS011;5860;52.018;8.536;2024-01-10T03:43:51;15.40;;;8.47;;
11608;SDS011;5860;52.018;8.536;2024-01-10T03:46:18;19.60;;;8.97;;
11608;SDS011;5860;52.018;8.536;2024-01-10T03:48:45;14.70;;;7.93;;
11608;SDS011;5860;52.018;8.536;2024-01-10T03:51:16;14.03;;;8.03;;
11608;SDS011;5860;52.018;8.536;2024-01-10T03:53:44;16.77;;;8.43;;
11608;SDS011;5860;52.018;8.536;2024-01-10T03:56:11;16.07;;;8.37;;
11608;SDS011;5860;52.018;8.536;2024-01-10T03:58:39;15.60;;;8.33;;
11608;SDS011;5860;52.018;8.536;2024-01-10T04:01:08;16.90;;;7.90;;
11608;SDS011;5860;52.018;8.536;2024-01-10T04:03:35;14.87;;;7.83;;
11608;SDS011;5860;52.018;8.536;2024-01-10T04:06:02;17.63;;;8.27;;
11608;SDS011;5860;52.018;8.536;2024-01-10T04:08:30;13.97;;;8.20;;
11608;SDS011;5860;52.018;8.536;2024-01-10T04:10:57;14.67;;;7.73;;
11608;SDS011;5860;52.018;8.536;2024-01-10T04:13:24;14.67;;;7.63;;
11608;SDS011;5860;52.018;8.536;2024-01-10T04:15:52;20.50;;;8.50;;
11608;SDS011;5860;52.018;8.536;2024-01-10T04:18:19;13.63;;;8.03;;
11608;SDS011;5860;52.018;8.536;2024-01-10T04:20:47;14.87;;;8.20;;
11608;SDS011;5860;52.018;8.536;2024-01-10T04:23:14;11.67;;;7.27;;
11608;SDS011;5860;52.018;8.536;2024-01-10T04:25:41;14.83;;;8.17;;
11608;SDS011;5860;52.018;8.536;2024-01-10T04:28:08;15.13;;;8.13;;
11608;SDS011;5860;52.018;8.536;2024-01-10T04:30:35;13.40;;;7.57;;
11608;SDS011;5860;52.018;8.536;2024-01-10T04:33:02;17.30;;;8.63;;
11608;SDS011;5860;52.018;8.536;2024-01-10T04:35:29;18.90;;;9.10;;
11608;SDS011;5860;52.018;8.536;2024-01-10T04:37:57;16.73;;;8.07;;
11608;SDS011;5860;52.018;8.536;2024-01-10T04:40:24;15.03;;;8.73;;
11608;SDS011;5860;52.018;8.536;2024-01-10T04:42:51;20.93;;;9.23;;
11608;SDS011;5860;52.018;8.536;2024-01-10T04:45:18;15.47;;;8.80;;
11608;SDS011;5860;52.018;8.536;2024-01-10T04:47:45;15.83;;;9.47;;
11608;SDS011;5860;52.018;8.536;2024-01-10T04:50:12;16.37;;;8.87;;
11608;SDS011;5860;52.018;8.536;2024-01-10T04:52:40;17.93;;;8.73;;
11608;SDS011;5860;52.018;8.536;2024-01-10T04:55:07;16.57;;;8.23;;
11608;SDS011;5860;52.018;8.536;2024-01-10T04:57:35;21.63;;;8.83;;
11608;SDS011;5860;52.018;8.536;2024-01-10T05:00:02;18.77;;;10.03;;
11608;SDS011;5860;52.018;8.536;2024-01-10T05:02:31;18.87;;;9.07;;
11608;SDS011;5860;52.018;8.536;2024-01-10T05:04:58;19.43;;;9.60;;
11608;SDS011;5860;52.018;8.536;2024-01-10T05:07:25;20.60;;;9.77;;
11608;SDS011;5860;52.018;8.536;2024-01-10T05:09:52;20.37;;;10.23;;
11608;SDS011;5860;52.018;8.536;2024-01-10T05:12:19;19.93;;;9.07;;
11608;SDS011;5860;52.018;8.536;2024-01-10T05:14:48;16.27;;;9.00;;
11608;SDS011;5860;52.018;8.536;2024-01-10T05:17:14;15.53;;;9.13;;
11608;SDS011;5860;52.018;8.536;2024-01-10T05:19:41;21.63;;;10.23;;
11608;SDS011;5860;52.018;8.536;2024-01-10T05:22:08;19.67;;;10.10;;
11608;SDS011;5860;52.018;8.536;2024-01-10T05:24:35;18.17;;;8.90;;
11608;SDS011;5860;52.018;8.536;2024-01-10T05:27:02;20.10;;;10.27;;
11608;SDS011;5860;52.018;8.536;2024-01-10T05:29:29;20.50;;;10.87;;
11608;SDS011;5860;52.018;8.536;2024-01-10T05:31:56;24.00;;;10.07;;
11608;SDS011;5860;52.018;8.536;2024-01-10T05:34:23;24.53;;;10.73;;
11608;SDS011;5860;52.018;8.536;2024-01-10T05:36:50;19.53;;;10.17;;
11608;SDS011;5860;52.018;8.536;2024-01-10T05:39:17;16.30;;;9.20;;
11608;SDS011;5860;52.018;8.536;2024-01-10T05:41:47;19.97;;;10.00;;
11608;SDS011;5860;52.018;8.536;2024-01-10T05:44:14;22.03;;;10.93;;
11608;SDS011;5860;52.018;8.536;2024-01-10T05:46:41;23.13;;;10.80;;
11608;SDS011;5860;52.018;8.536;2024-01-10T05:49:09;19.77;;;9.70;;
11608;SDS011;5860;52.018;8.536;2024-01-10T05:51:37;16.17;;;8.90;;
11608;SDS011;5860;52.018;8.536;2024-01-10T05:54:04;19.30;;;10.57;;
11608;SDS011;5860;52.018;8.536;2024-01-10T05:56:31;16.83;;;9.33;;
11608;SDS011;5860;52.018;8.536;2024-01-10T05:58:58;18.73;;;9.87;;
11608;SDS011;5860;52.018;8.536;2024-01-10T06:01:25;19.03;;;9.57;;
11608;SDS011;5860;52.018;8.536;2024-01-10T06:03:51;18.97;;;9.80;;
11608;SDS011;5860;52.018;8.536;2024-01-10T06:06:19;20.67;;;10.07;;
11608;SDS011;5860;52.018;8.536;2024-01-10T06:09:04;18.17;;;10.33;;
11608;SDS011;5860;52.018;8.536;2024-01-10T06:11:31;20.93;;;9.70;;
11608;SDS011;5860;52.018;8.536;2024-01-10T06:13:58;22.20;;;12.47;;
11608;SDS011;5860;52.018;8.536;2024-01-10T06:16:25;16.57;;;9.77;;
11608;SDS011;5860;52.018;8.536;2024-01-10T06:18:52;21.57;;;11.10;;
11608;SDS011;5860;52.018;8.536;2024-01-10T06:21:19;20.83;;;10.20;;
11608;SDS011;5860;52.018;8.536;2024-01-10T06:23:46;21.97;;;10.03;;
11608;SDS011;5860;52.018;8.536;2024-01-10T06:26:13;19.63;;;9.90;;
11608;SDS011;5860;52.018;8.536;2024-01-10T06:28:40;18.13;;;9.73;;
11608;SDS011;5860;52.018;8.536;2024-01-10T06:31:08;19.87;;;11.47;;
11608;SDS011;5860;52.018;8.536;2024-01-10T06:33:38;20.07;;;10.13;;
11608;SDS011;5860;52.018;8.536;2024-01-10T06:36:05;20.37;;;9.10;;
11608;SDS011;5860;52.018;8.536;2024-01-10T06:38:32;19.40;;;10.23;;
11608;SDS011;5860;52.018;8.536;2024-01-10T06:40:59;26.37;;;10.53;;
11608;SDS011;5860;52.018;8.536;2024-01-10T06:43:26;19.40;;;10.50;;
11608;SDS011;5860;52.018;8.536;2024-01-10T06:45:52;25.63;;;11.23;;
11608;SDS011;5860;52.018;8.536;2024-01-10T06:48:19;19.57;;;9.90;;
11608;SDS011;5860;52.018;8.536;2024-01-10T06:50:47;26.53;;;12.43;;
11608;SDS011;5860;52.018;8.536;2024-01-10T06:53:13;22.10;;;10.27;;
11608;SDS011;5860;52.018;8.536;2024-01-10T06:55:40;21.07;;;10.97;;
11608;SDS011;5860;52.018;8.536;2024-01-10T06:58:07;19.77;;;10.40;;
11608;SDS011;5860;52.018;8.536;2024-01-10T07:00:34;20.37;;;11.00;;
11608;SDS011;5860;52.018;8.536;2024-01-10T07:03:01;18.23;;;10.37;;
11608;SDS011;5860;52.018;8.536;2024-01-10T07:05:28;21.77;;;10.63;;
11608;SDS011;5860;52.018;8.536;2024-01-10T07:07:58;25.67;;;11.90;;
11608;SDS011;5860;52.018;8.536;2024-01-10T07:10:25;19.87;;;10.77;;
11608;SDS011;5860;52.018;8.536;2024-01-10T07:12:54;19.47;;;11.57;;
11608;SDS011;5860;52.018;8.536;2024-01-10T07:15:21;21.70;;;11.20;;
11608;SDS011;5860;52.018;8.536;2024-01-10T07:17:49;24.97;;;11.77;;
11608;SDS011;5860;52.018;8.536;2024-01-10T07:20:16;20.53;;;10.13;;
11608;SDS011;5860;52.018;8.536;2024-01-10T07:22:42;24.57;;;11.17;;
11608;SDS011;5860;52.018;8.536;2024-01-10T07:25:10;24.27;;;11.77;;
11608;SDS011;5860;52.018;8.536;2024-01-10T07:27:40;23.13;;;12.30;;
11608;SDS011;5860;52.018;8.536;2024-01-10T07:30:08;25.27;;;12.33;;
11608;SDS011;5860;52.018;8.536;2024-01-10T07:32:41;24.07;;;10.97;;
11608;SDS011;5860;52.018;8.536;2024-01-10T07:35:12;23.77;;;12.10;;
11608;SDS011;5860;52.018;8.536;2024-01-10T07:37:42;23.13;;;11.33;;
11608;SDS011;5860;52.018;8.536;2024-01-10T07:40:10;21.93;;;11.87;;
11608;SDS011;5860;52.018;8.536;2024-01-10T07:42:37;22.73;;;11.63;;
11608;SDS011;5860;52.018;8.536;2024-01-10T07:45:06;27.27;;;11.70;;
11608;SDS011;5860;52.018;8.536;2024-01-10T07:47:34;26.03;;;12.30;;
11608;SDS011;5860;52.018;8.536;2024-01-10T07:52:35;22.37;;;11.97;;
11608;SDS011;5860;52.018;8.536;2024-01-10T07:55:02;20.83;;;11.00;;
11608;SDS011;5860;52.018;8.536;2024-01-10T07:57:31;25.70;;;12.07;;
11608;SDS011;5860;52.018;8.536;2024-01-10T08:00:00;25.83;;;12.57;;
11608;SDS011;5860;52.018;8.536;2024-01-10T08:02:27;24.40;;;12.13;;
11608;SDS011;5860;52.018;8.536;2024-01-10T08:04:54;22.07;;;11.47;;
11608;SDS011;5860;52.018;8.536;2024-01-10T08:07:21;21.63;;;11.77;;
11608;SDS011;5860;52.018;8.536;2024-01-10T08:09:49;24.60;;;12.27;;
11608;SDS011;5860;52.018;8.536;2024-01-10T08:12:16;22.70;;;11.83;;
11608;SDS011;5860;52.018;8.536;2024-01-10T08:14:43;23.57;;;12.70;;
11608;SDS011;5860;52.018;8.536;2024-01-10T08:17:12;27.73;;;13.37;;
11608;SDS011;5860;52.018;8.536;2024-01-10T08:19:39;22.97;;;12.40;;
11608;SDS011;5860;52.018;8.536;2024-01-10T08:22:06;22.07;;;11.77;;
11608;SDS011;5860;52.018;8.536;2024-01-10T08:24:34;21.10;;;12.43;;
11608;SDS011;5860;52.018;8.536;2024-01-10T08:27:01;22.53;;;12.17;;
11608;SDS011;5860;52.018;8.536;2024-01-10T08:29:28;22.07;;;11.80;;
11608;SDS011;5860;52.018;8.536;2024-01-10T08:31:57;27.67;;;11.57;;
11608;SDS011;5860;52.018;8.536;2024-01-10T08:34:24;23.90;;;12.50;;
11608;SDS011;5860;52.018;8.536;2024-01-10T08:36:51;23.20;;;11.97;;
11608;SDS011;5860;52.018;8.536;2024-01-10T08:39:19;21.07;;;12.63;;
11608;SDS011;5860;52.018;8.536;2024-01-10T08:41:48;28.53;;;13.80;;
11608;SDS011;5860;52.018;8.536;2024-01-10T08:44:15;27.33;;;13.40;;
11608;SDS011;5860;52.018;8.536;2024-01-10T08:46:42;22.30;;;12.93;;
11608;SDS011;5860;52.018;8.536;2024-01-10T08:49:09;24.00;;;12.20;;
11608;SDS011;5860;52.018;8.536;2024-01-10T08:51:36;21.63;;;11.50;;
11608;SDS011;5860;52.018;8.536;2024-01-10T08:54:03;29.07;;;12.50;;
11608;SDS011;5860;52.018;8.536;2024-01-10T08:56:31;24.00;;;12.87;;
11608;SDS011;5860;52.018;8.536;2024-01-10T08:58:58;22.13;;;12.87;;
11608;SDS011;5860;52.018;8.536;2024-01-10T09:01:24;26.10;;;13.13;;
11608;SDS011;5860;52.018;8.536;2024-01-10T09:03:51;20.70;;;12.93;;
11608;SDS011;5860;52.018;8.536;2024-01-10T09:06:18;25.33;;;12.70;;
11608;SDS011;5860;52.018;8.536;2024-01-10T09:08:47;24.57;;;12.87;;
11608;SDS011;5860;52.018;8.536;2024-01-10T09:11:14;21.27;;;12.17;;
11608;SDS011;5860;52.018;8.536;2024-01-10T09:13:41;21.40;;;11.87;;
11608;SDS011;5860;52.018;8.536;2024-01-10T09:16:08;26.80;;;12.70;;
11608;SDS011;5860;52.018;8.536;2024-01-10T09:18:36;24.50;;;13.10;;
11608;SDS011;5860;52.018;8.536;2024-01-10T09:21:05;22.83;;;12.33;;
11608;SDS011;5860;52.018;8.536;2024-01-10T09:23:32;25.50;;;12.27;;
11608;SDS011;5860;52.018;8.536;2024-01-10T09:25:59;23.53;;;12.33;;
11608;SDS011;5860;52.018;8.536;2024-01-10T09:28:26;25.03;;;13.07;;
11608;SDS011;5860;52.018;8.536;2024-01-10T09:30:53;27.27;;;12.53;;
11608;SDS011;5860;52.018;8.536;2024-01-10T09:33:20;23.23;;;12.90;;
11608;SDS011;5860;52.018;8.536;2024-01-10T09:35:49;25.03;;;12.60;;
11608;SDS011;5860;52.018;8.536;2024-01-10T09:38:16;27.17;;;12.47;;
11608;SDS011;5860;52.018;8.536;2024-01-10T09:40:43;25.20;;;12.80;;
11608;SDS011;5860;52.018;8.536;2024-01-10T09:43:13;22.27;;;12.57;;
11608;SDS011;5860;52.018;8.536;2024-01-10T09:45:44;23.07;;;12.43;;
11608;SDS011;5860;52.018;8.536;2024-01-10T09:48:14;23.73;;;12.73;;
11608;SDS011;5860;52.018;8.536;2024-01-10T09:50:42;21.93;;;11.27;;
11608;SDS011;5860;52.018;8.536;2024-01-10T09:53:10;24.77;;;12.07;;
11608;SDS011;5860;52.018;8.536;2024-01-10T09:55:46;22.13;;;12.33;;
11608;SDS011;5860;52.018;8.536;2024-01-10T09:58:13;26.10;;;13.57;;
11608;SDS011;5860;52.018;8.536;2024-01-10T10:00:40;20.73;;;11.90;;
11608;SDS011;5860;52.018;8.536;2024-01-10T10:03:08;21.43;;;11.63;;
11608;SDS011;5860;52.018;8.536;2024-01-10T10:05:39;23.10;;;12.13;;
11608;SDS011;5860;52.018;8.536;2024-01-10T10:08:12;25.53;;;12.57;;
11608;SDS011;5860;52.018;8.536;2024-01-10T10:10:49;23.93;;;11.90;;
11608;SDS011;5860;52.018;8.536;2024-01-10T10:13:26;19.20;;;11.97;;
11608;SDS011;5860;52.018;8.536;2024-01-10T10:15:58;23.57;;;12.50;;
11608;SDS011;5860;52.018;8.536;2024-01-10T10:18:27;22.17;;;11.90;;
11608;SDS011;5860;52.018;8.536;2024-01-10T10:21:11;20.07;;;11.77;;
11608;SDS011;5860;52.018;8.536;2024-01-10T10:23:40;20.73;;;12.20;;
11608;SDS011;5860;52.018;8.536;2024-01-10T10:26:18;23.03;;;11.77;;
11608;SDS011;5860;52.018;8.536;2024-01-10T10:28:48;21.50;;;11.67;;
11608;SDS011;5860;52.018;8.536;2024-01-10T10:31:16;24.13;;;13.13;;
11608;SDS011;5860;52.018;8.536;2024-01-10T10:33:45;20.40;;;11.93;;
11608;SDS011;5860;52.018;8.536;2024-01-10T10:36:13;25.90;;;12.30;;
11608;SDS011;5860;52.018;8.536;2024-01-10T10:38:41;19.27;;;11.67;;
11608;SDS011;5860;52.018;8.536;2024-01-10T10:41:07;26.67;;;13.17;;
11608;SDS011;5860;52.018;8.536;2024-01-10T10:43:37;22.87;;;12.50;;
11608;SDS011;5860;52.018;8.536;2024-01-10T10:46:07;21.00;;;11.23;;
11608;SDS011;5860;52.018;8.536;2024-01-10T10:48:39;23.47;;;12.53;;
11608;SDS011;5860;52.018;8.536;2024-01-10T10:53:42;22.30;;;11.23;;
11608;SDS011;5860;52.018;8.536;2024-01-10T10:56:11;20.90;;;11.90;;
11608;SDS011;5860;52.018;8.536;2024-01-10T10:58:39;25.73;;;11.97;;
11608;SDS011;5860;52.018;8.536;2024-01-10T11:01:09;25.00;;;12.20;;
11608;SDS011;5860;52.018;8.536;2024-01-10T11:03:39;20.67;;;11.60;;
11608;SDS011;5860;52.018;8.536;2024-01-10T11:06:09;26.40;;;11.83;;
11608;SDS011;5860;52.018;8.536;2024-01-10T11:08:37;22.23;;;12.40;;
11608;SDS011;5860;52.018;8.536;2024-01-10T11:17:01;23.03;;;12.53;;
11608;SDS011;5860;52.018;8.536;2024-01-10T11:25:16;20.10;;;11.47;;
11608;SDS011;5860;52.018;8.536;2024-01-10T11:27:44;20.10;;;11.77;;
11608;SDS011;5860;52.018;8.536;2024-01-10T11:30:13;23.10;;;12.30;;
11608;SDS011;5860;52.018;8.536;2024-01-10T11:33:01;22.73;;;12.27;;
11608;SDS011;5860;52.018;8.536;2024-01-10T11:35:50;23.40;;;12.67;;
11608;SDS011;5860;52.018;8.536;2024-01-10T11:38:41;26.73;;;12.23;;
11608;SDS011;5860;52.018;8.536;2024-01-10T11:41:11;25.70;;;12.57;;
11608;SDS011;5860;52.018;8.536;2024-01-10T11:43:39;24.97;;;12.07;;
11608;SDS011;5860;52.018;8.536;2024-01-10T11:46:06;21.83;;;12.27;;
11608;SDS011;5860;52.018;8.536;2024-01-10T11:48:34;22.10;;;11.97;;
11608;SDS011;5860;52.018;8.536;2024-01-10T11:51:05;22.30;;;12.33;;
11608;SDS011;5860;52.018;8.536;2024-01-10T11:53:43;22.83;;;12.80;;
11608;SDS011;5860;52.018;8.536;2024-01-10T11:56:17;21.57;;;11.60;;
11608;SDS011;5860;52.018;8.536;2024-01-10T11:59:02;24.50;;;12.67;;
11608;SDS011;5860;52.018;8.536;2024-01-10T12:01:35;23.23;;;13.00;;
11608;SDS011;5860;52.018;8.536;2024-01-10T12:04:04;21.00;;;11.57;;
11608;SDS011;5860;52.018;8.536;2024-01-10T12:06:45;23.20;;;12.53;;
11608;SDS011;5860;52.018;8.536;2024-01-10T12:09:14;22.93;;;12.57;;
11608;SDS011;5860;52.018;8.536;2024-01-10T12:11:41;22.40;;;12.30;;
11608;SDS011;5860;52.018;8.536;2024-01-10T12:14:08;28.13;;;13.07;;
11608;SDS011;5860;52.018;8.536;2024-01-10T12:16:36;22.47;;;11.63;;
11608;SDS011;5860;52.018;8.536;2024-01-10T12:19:03;24.27;;;12.97;;
11608;SDS011;5860;52.018;8.536;2024-01-10T12:21:31;24.03;;;11.70;;
11608;SDS011;5860;52.018;8.536;2024-01-10T12:23:58;22.53;;;12.27;;
11608;SDS011;5860;52.018;8.536;2024-01-10T12:26:25;21.87;;;12.20;;
11608;SDS011;5860;52.018;8.536;2024-01-10T12:28:56;27.13;;;12.00;;
11608;SDS011;5860;52.018;8.536;2024-01-10T12:31:27;23.77;;;12.80;;
11608;SDS011;5860;52.018;8.536;2024-01-10T12:33:55;25.47;;;12.10;;
11608;SDS011;5860;52.018;8.536;2024-01-10T12:36:22;24.37;;;13.07;;
11608;SDS011;5860;52.018;8.536;2024-01-10T12:38:50;22.23;;;12.87;;
11608;SDS011;5860;52.018;8.536;2024-01-10T12:41:18;20.27;;;12.30;;
11608;SDS011;5860;52.018;8.536;2024-01-10T12:43:48;22.23;;;12.43;;
11608;SDS011;5860;52.018;8.536;2024-01-10T12:46:17;21.87;;;12.47;;
11608;SDS011;5860;52.018;8.536;2024-01-10T12:48:44;22.77;;;12.77;;
11608;SDS011;5860;52.018;8.536;2024-01-10T12:51:12;24.13;;;12.73;;
11608;SDS011;5860;52.018;8.536;2024-01-10T12:53:40;23.10;;;12.03;;
11608;SDS011;5860;52.018;8.536;2024-01-10T12:56:09;23.73;;;11.97;;
11608;SDS011;5860;52.018;8.536;2024-01-10T12:58:41;21.77;;;12.90;;
11608;SDS011;5860;52.018;8.536;2024-01-10T13:01:09;21.17;;;12.07;;
11608;SDS011;5860;52.018;8.536;2024-01-10T13:03:36;23.60;;;12.43;;
11608;SDS011;5860;52.018;8.536;2024-01-10T13:06:04;21.90;;;12.20;;
11608;SDS011;5860;52.018;8.536;2024-01-10T13:08:32;24.63;;;13.00;;
11608;SDS011;5860;52.018;8.536;2024-01-10T13:10:59;23.73;;;13.87;;
11608;SDS011;5860;52.018;8.536;2024-01-10T13:13:27;23.80;;;14.17;;
11608;SDS011;5860;52.018;8.536;2024-01-10T13:15:54;24.67;;;14.07;;
11608;SDS011;5860;52.018;8.536;2024-01-10T13:18:22;21.83;;;12.93;;
11608;SDS011;5860;52.018;8.536;2024-01-10T13:20:49;23.67;;;14.07;;
11608;SDS011;5860;52.018;8.536;2024-01-10T13:23:17;24.43;;;12.80;;
11608;SDS011;5860;52.018;8.536;2024-01-10T13:25:48;24.47;;;13.10;;
11608;SDS011;5860;52.018;8.536;2024-01-10T13:28:15;24.50;;;13.80;;
11608;SDS011;5860;52.018;8.536;2024-01-10T13:30:42;27.93;;;14.60;;
11608;SDS011;5860;52.018;8.536;2024-01-10T13:33:12;30.43;;;14.77;;
11608;SDS011;5860;52.018;8.536;2024-01-10T13:35:40;26.47;;;14.23;;
11608;SDS011;5860;52.018;8.536;2024-01-10T13:38:07;29.47;;;15.13;;
11608;SDS011;5860;52.018;8.536;2024-01-10T13:40:36;30.37;;;15.10;;
11608;SDS011;5860;52.018;8.536;2024-01-10T13:43:05;28.10;;;14.93;;
11608;SDS011;5860;52.018;8.536;2024-01-10T13:45:31;25.90;;;14.70;;
11608;SDS011;5860;52.018;8.536;2024-01-10T13:47:59;29.23;;;15.13;;
11608;SDS011;5860;52.018;8.536;2024-01-10T13:50:26;29.90;;;15.60;;
11608;SDS011;5860;52.018;8.536;2024-01-10T13:52:55;29.23;;;15.80;;
11608;SDS011;5860;52.018;8.536;2024-01-10T13:55:22;32.97;;;15.80;;
11608;SDS011;5860;52.018;8.536;2024-01-10T13:57:50;30.10;;;16.07;;
11608;SDS011;5860;52.018;8.536;2024-01-10T14:00:19;31.73;;;16.33;;
11608;SDS011;5860;52.018;8.536;2024-01-10T14:02:47;28.87;;;16.47;;
11608;SDS011;5860;52.018;8.536;2024-01-10T14:05:14;27.20;;;15.87;;
11608;SDS011;5860;52.018;8.536;2024-01-10T14:07:41;29.80;;;16.20;;
11608;SDS011;5860;52.018;8.536;2024-01-10T14:10:11;30.33;;;16.47;;
11608;SDS011;5860;52.018;8.536;2024-01-10T14:12:39;31.03;;;17.37;;
11608;SDS011;5860;52.018;8.536;2024-01-10T14:15:06;29.50;;;16.03;;
11608;SDS011;5860;52.018;8.536;2024-01-10T14:17:35;30.07;;;16.43;;
11608;SDS011;5860;52.018;8.536;2024-01-10T14:20:02;30.77;;;16.63;;
11608;SDS011;5860;52.018;8.536;2024-01-10T14:22:30;33.90;;;17.30;;
11608;SDS011;5860;52.018;8.536;2024-01-10T14:24:59;27.70;;;16.40;;
11608;SDS011;5860;52.018;8.536;2024-01-10T14:27:28;27.83;;;16.17;;
11608;SDS011;5860;52.018;8.536;2024-01-10T14:29:55;33.47;;;16.87;;
11608;SDS011;5860;52.018;8.536;2024-01-10T14:32:22;30.10;;;16.57;;
11608;SDS011;5860;52.018;8.536;2024-01-10T14:34:49;33.23;;;17.47;;
11608;SDS011;5860;52.018;8.536;2024-01-10T14:37:17;34.87;;;18.90;;
11608;SDS011;5860;52.018;8.536;2024-01-10T14:39:44;31.67;;;18.00;;
11608;SDS011;5860;52.018;8.536;2024-01-10T14:42:11;36.43;;;18.03;;
11608;SDS011;5860;52.018;8.536;2024-01-10T14:44:39;32.70;;;18.10;;
11608;SDS011;5860;52.018;8.536;2024-01-10T14:47:07;36.07;;;17.57;;
11608;SDS011;5860;52.018;8.536;2024-01-10T14:49:37;32.40;;;17.10;;
11608;SDS011;5860;52.018;8.536;2024-01-10T14:52:05;31.50;;;17.17;;
11608;SDS011;5860;52.018;8.536;2024-01-10T14:54:32;33.43;;;16.43;;
11608;SDS011;5860;52.018;8.536;2024-01-10T14:57:00;30.73;;;17.43;;
11608;SDS011;5860;52.018;8.536;2024-01-10T14:59:27;33.03;;;17.53;;
11608;SDS011;5860;52.018;8.536;2024-01-10T15:02:09;29.93;;;17.50;;
11608;SDS011;5860;52.018;8.536;2024-01-10T15:04:38;35.20;;;19.27;;